sensor_id;sensor_type;location;lat;lon;timestamp;P1;durP1;ratioP1;P2;durP2;ratioP2
55031;SDS011;40928;51.076;7.950;2023-10-31T00:00:09;3.08;;;0.90;;
55031;SDS011;40928;51.076;7.950;2023-10-31T00:02:37;1.80;;;0.95;;
55031;SDS011;40928;51.076;7.950;2023-10-31T00:05:03;2.17;;;0.73;;
55031;SDS011;40928;51.076;7.950;2023-10-31T00:07:29;1.27;;;1.02;;
55031;SDS011;40928;51.076;7.950;2023-10-31T00:09:55;1.05;;;0.73;;
55031;SDS011;40928;51.076;7.950;2023-10-31T00:12:21;1.08;;;0.50;;
55031;SDS011;40928;51.076;7.950;2023-10-31T00:14:46;6.28;;;1.30;;
55031;SDS011;40928;51.076;7.950;2023-10-31T00:17:12;1.85;;;0.50;;
55031;SDS011;40928;51.076;7.950;2023-10-31T00:19:38;1.00;;;0.60;;
55031;SDS011;40928;51.076;7.950;2023-10-31T00:22:04;0.90;;;0.50;;
55031;SDS011;40928;51.076;7.950;2023-10-31T00:24:30;2.38;;;0.57;;
55031;SDS011;40928;51.076;7.950;2023-10-31T00:26:57;1.45;;;0.77;;
55031;SDS011;40928;51.076;7.950;2023-10-31T00:29:23;0.40;;;0.40;;
55031;SDS011;40928;51.076;7.950;2023-10-31T00:31:49;1.77;;;0.75;;
55031;SDS011;40928;51.076;7.950;2023-10-31T00:34:15;0.85;;;0.60;;
55031;SDS011;40928;51.076;7.950;2023-10-31T00:36:40;1.10;;;0.60;;
55031;SDS011;40928;51.076;7.950;2023-10-31T00:39:06;0.82;;;0.70;;
55031;SDS011;40928;51.076;7.950;2023-10-31T00:41:32;1.98;;;0.85;;
55031;SDS011;40928;51.076;7.950;2023-10-31T00:43:58;1.88;;;0.50;;
55031;SDS011;40928;51.076;7.950;2023-10-31T00:46:24;1.08;;;0.50;;
55031;SDS011;40928;51.076;7.950;2023-10-31T00:48:49;2.45;;;0.52;;
55031;SDS011;40928;51.076;7.950;2023-10-31T00:51:15;3.65;;;0.63;;
55031;SDS011;40928;51.076;7.950;2023-10-31T00:53:41;1.27;;;0.60;;
55031;SDS011;40928;51.076;7.950;2023-10-31T00:56:07;1.00;;;0.60;;
55031;SDS011;40928;51.076;7.950;2023-10-31T00:58:33;1.00;;;0.70;;
55031;SDS011;40928;51.076;7.950;2023-10-31T01:00:58;1.40;;;0.63;;
55031;SDS011;40928;51.076;7.950;2023-10-31T01:03:25;0.73;;;0.50;;
55031;SDS011;40928;51.076;7.950;2023-10-31T01:05:50;0.88;;;0.60;;
55031;SDS011;40928;51.076;7.950;2023-10-31T01:08:16;1.00;;;0.50;;
55031;SDS011;40928;51.076;7.950;2023-10-31T01:10:42;0.93;;;0.70;;
55031;SDS011;40928;51.076;7.950;2023-10-31T01:13:07;0.85;;;0.65;;
55031;SDS011;40928;51.076;7.950;2023-10-31T01:15:33;1.50;;;0.70;;
55031;SDS011;40928;51.076;7.950;2023-10-31T01:17:59;0.93;;;0.60;;
55031;SDS011;40928;51.076;7.950;2023-10-31T01:20:25;0.63;;;0.55;;
55031;SDS011;40928;51.076;7.950;2023-10-31T01:22:51;2.60;;;1.40;;
55031;SDS011;40928;51.076;7.950;2023-10-31T01:25:16;1.70;;;1.10;;
55031;SDS011;40928;51.076;7.950;2023-10-31T01:27:42;1.00;;;0.90;;
55031;SDS011;40928;51.076;7.950;2023-10-31T01:30:08;2.03;;;0.80;;
55031;SDS011;40928;51.076;7.950;2023-10-31T01:32:35;0.82;;;0.80;;
55031;SDS011;40928;51.076;7.950;2023-10-31T01:35:01;1.98;;;1.27;;
55031;SDS011;40928;51.076;7.950;2023-10-31T01:37:27;1.55;;;1.27;;
55031;SDS011;40928;51.076;7.950;2023-10-31T01:39:53;1.50;;;1.23;;
55031;SDS011;40928;51.076;7.950;2023-10-31T01:42:19;1.88;;;1.33;;
55031;SDS011;40928;51.076;7.950;2023-10-31T01:44:44;4.55;;;2.47;;
55031;SDS011;40928;51.076;7.950;2023-10-31T01:47:10;4.88;;;2.00;;
55031;SDS011;40928;51.076;7.950;2023-10-31T01:49:36;2.45;;;1.63;;
55031;SDS011;40928;51.076;7.950;2023-10-31T01:52:03;2.20;;;1.67;;
55031;SDS011;40928;51.076;7.950;2023-10-31T01:54:31;2.85;;;1.88;;
55031;SDS011;40928;51.076;7.950;2023-10-31T01:57:00;2.38;;;1.88;;
55031;SDS011;40928;51.076;7.950;2023-10-31T01:59:27;2.30;;;2.10;;
55031;SDS011;40928;51.076;7.950;2023-10-31T02:01:54;2.75;;;2.33;;
55031;SDS011;40928;51.076;7.950;2023-10-31T02:04:22;3.28;;;2.63;;
55031;SDS011;40928;51.076;7.950;2023-10-31T02:06:47;4.13;;;2.80;;
55031;SDS011;40928;51.076;7.950;2023-10-31T02:09:13;3.20;;;2.53;;
55031;SDS011;40928;51.076;7.950;2023-10-31T02:11:39;3.40;;;2.83;;
55031;SDS011;40928;51.076;7.950;2023-10-31T02:14:05;3.95;;;3.13;;
55031;SDS011;40928;51.076;7.950;2023-10-31T02:16:31;4.18;;;3.28;;
55031;SDS011;40928;51.076;7.950;2023-10-31T02:18:56;7.88;;;3.45;;
55031;SDS011;40928;51.076;7.950;2023-10-31T02:21:23;4.20;;;3.25;;
55031;SDS011;40928;51.076;7.950;2023-10-31T02:24:03;3.65;;;2.80;;
55031;SDS011;40928;51.076;7.950;2023-10-31T02:26:33;3.85;;;2.75;;
55031;SDS011;40928;51.076;7.950;2023-10-31T02:29:00;4.20;;;3.15;;
55031;SDS011;40928;51.076;7.950;2023-10-31T02:31:27;2.95;;;2.65;;
55031;SDS011;40928;51.076;7.950;2023-10-31T02:33:53;6.70;;;2.90;;
55031;SDS011;40928;51.076;7.950;2023-10-31T02:36:19;5.00;;;2.85;;
55031;SDS011;40928;51.076;7.950;2023-10-31T02:38:45;4.45;;;2.53;;
55031;SDS011;40928;51.076;7.950;2023-10-31T02:41:11;3.72;;;2.28;;
55031;SDS011;40928;51.076;7.950;2023-10-31T02:43:37;4.72;;;2.45;;
55031;SDS011;40928;51.076;7.950;2023-10-31T02:46:03;4.43;;;2.60;;
55031;SDS011;40928;51.076;7.950;2023-10-31T02:48:29;3.45;;;2.15;;
55031;SDS011;40928;51.076;7.950;2023-10-31T02:50:57;4.13;;;2.22;;
55031;SDS011;40928;51.076;7.950;2023-10-31T02:53:23;5.05;;;2.50;;
55031;SDS011;40928;51.076;7.950;2023-10-31T02:55:49;6.10;;;2.53;;
55031;SDS011;40928;51.076;7.950;2023-10-31T02:58:14;3.80;;;2.45;;
55031;SDS011;40928;51.076;7.950;2023-10-31T03:00:42;5.18;;;2.40;;
55031;SDS011;40928;51.076;7.950;2023-10-31T03:03:08;4.03;;;2.33;;
55031;SDS011;40928;51.076;7.950;2023-10-31T03:05:34;4.07;;;2.88;;
55031;SDS011;40928;51.076;7.950;2023-10-31T03:08:00;4.97;;;2.70;;
55031;SDS011;40928;51.076;7.950;2023-10-31T03:12:59;5.72;;;2.80;;
55031;SDS011;40928;51.076;7.950;2023-10-31T03:20:56;5.80;;;3.08;;
55031;SDS011;40928;51.076;7.950;2023-10-31T03:23:21;3.60;;;2.35;;
55031;SDS011;40928;51.076;7.950;2023-10-31T03:25:47;3.35;;;2.13;;
55031;SDS011;40928;51.076;7.950;2023-10-31T03:28:19;5.50;;;1.90;;
55031;SDS011;40928;51.076;7.950;2023-10-31T03:30:48;6.10;;;2.10;;
55031;SDS011;40928;51.076;7.950;2023-10-31T03:33:14;6.50;;;1.70;;
55031;SDS011;40928;51.076;7.950;2023-10-31T03:35:40;1.95;;;1.20;;
55031;SDS011;40928;51.076;7.950;2023-10-31T03:38:06;3.30;;;1.42;;
55031;SDS011;40928;51.076;7.950;2023-10-31T03:40:31;6.85;;;1.70;;
55031;SDS011;40928;51.076;7.950;2023-10-31T03:42:57;6.07;;;1.50;;
55031;SDS011;40928;51.076;7.950;2023-10-31T03:45:23;3.65;;;1.60;;
55031;SDS011;40928;51.076;7.950;2023-10-31T03:47:49;2.85;;;1.67;;
55031;SDS011;40928;51.076;7.950;2023-10-31T03:50:15;9.52;;;1.83;;
55031;SDS011;40928;51.076;7.950;2023-10-31T03:52:41;3.65;;;1.55;;
55031;SDS011;40928;51.076;7.950;2023-10-31T03:55:07;7.03;;;2.25;;
55031;SDS011;40928;51.076;7.950;2023-10-31T03:57:33;8.98;;;2.17;;
55031;SDS011;40928;51.076;7.950;2023-10-31T03:59:59;4.93;;;2.25;;
55031;SDS011;40928;51.076;7.950;2023-10-31T04:02:26;5.13;;;1.70;;
55031;SDS011;40928;51.076;7.950;2023-10-31T04:04:51;5.75;;;1.50;;
55031;SDS011;40928;51.076;7.950;2023-10-31T04:07:17;13.55;;;1.90;;
55031;SDS011;40928;51.076;7.950;2023-10-31T04:09:42;2.83;;;1.55;;
55031;SDS011;40928;51.076;7.950;2023-10-31T04:12:08;8.13;;;1.38;;
55031;SDS011;40928;51.076;7.950;2023-10-31T04:14:34;6.90;;;1.33;;
55031;SDS011;40928;51.076;7.950;2023-10-31T04:16:59;3.13;;;1.30;;
55031;SDS011;40928;51.076;7.950;2023-10-31T04:19:25;2.42;;;1.17;;
55031;SDS011;40928;51.076;7.950;2023-10-31T04:21:52;6.20;;;1.20;;
55031;SDS011;40928;51.076;7.950;2023-10-31T04:24:18;3.38;;;1.83;;
55031;SDS011;40928;51.076;7.950;2023-10-31T04:26:44;2.38;;;1.30;;
55031;SDS011;40928;51.076;7.950;2023-10-31T04:29:10;2.92;;;1.10;;
55031;SDS011;40928;51.076;7.950;2023-10-31T04:31:35;4.38;;;1.25;;
55031;SDS011;40928;51.076;7.950;2023-10-31T04:34:01;5.25;;;1.27;;
55031;SDS011;40928;51.076;7.950;2023-10-31T04:36:26;2.85;;;1.55;;
55031;SDS011;40928;51.076;7.950;2023-10-31T04:38:52;3.40;;;1.77;;
55031;SDS011;40928;51.076;7.950;2023-10-31T04:41:18;3.45;;;1.65;;
55031;SDS011;40928;51.076;7.950;2023-10-31T04:43:44;2.50;;;1.63;;
55031;SDS011;40928;51.076;7.950;2023-10-31T04:46:10;3.15;;;1.60;;
55031;SDS011;40928;51.076;7.950;2023-10-31T04:48:35;3.88;;;1.55;;
55031;SDS011;40928;51.076;7.950;2023-10-31T04:51:01;3.80;;;1.80;;
55031;SDS011;40928;51.076;7.950;2023-10-31T04:53:27;2.72;;;1.38;;
55031;SDS011;40928;51.076;7.950;2023-10-31T04:55:53;2.78;;;1.98;;
55031;SDS011;40928;51.076;7.950;2023-10-31T04:58:18;4.00;;;2.00;;
55031;SDS011;40928;51.076;7.950;2023-10-31T05:00:44;2.45;;;1.83;;
55031;SDS011;40928;51.076;7.950;2023-10-31T05:03:10;2.33;;;1.77;;
55031;SDS011;40928;51.076;7.950;2023-10-31T05:05:36;2.10;;;1.15;;
55031;SDS011;40928;51.076;7.950;2023-10-31T05:08:01;4.75;;;1.77;;
55031;SDS011;40928;51.076;7.950;2023-10-31T05:10:27;2.47;;;1.80;;
55031;SDS011;40928;51.076;7.950;2023-10-31T05:12:53;2.72;;;1.13;;
55031;SDS011;40928;51.076;7.950;2023-10-31T05:15:19;2.05;;;0.77;;
55031;SDS011;40928;51.076;7.950;2023-10-31T05:17:44;1.15;;;0.90;;
55031;SDS011;40928;51.076;7.950;2023-10-31T05:20:10;1.55;;;1.10;;
55031;SDS011;40928;51.076;7.950;2023-10-31T05:22:36;1.13;;;0.90;;
55031;SDS011;40928;51.076;7.950;2023-10-31T05:25:02;1.48;;;0.98;;
55031;SDS011;40928;51.076;7.950;2023-10-31T05:27:28;2.03;;;1.48;;
55031;SDS011;40928;51.076;7.950;2023-10-31T05:29:54;3.13;;;1.08;;
55031;SDS011;40928;51.076;7.950;2023-10-31T05:32:20;1.85;;;1.55;;
55031;SDS011;40928;51.076;7.950;2023-10-31T05:34:45;2.60;;;1.30;;
55031;SDS011;40928;51.076;7.950;2023-10-31T05:37:11;2.58;;;1.58;;
55031;SDS011;40928;51.076;7.950;2023-10-31T05:39:36;1.83;;;1.50;;
55031;SDS011;40928;51.076;7.950;2023-10-31T05:42:02;5.55;;;2.25;;
55031;SDS011;40928;51.076;7.950;2023-10-31T05:44:29;5.88;;;1.92;;
55031;SDS011;40928;51.076;7.950;2023-10-31T05:46:54;2.08;;;1.55;;
55031;SDS011;40928;51.076;7.950;2023-10-31T05:49:20;3.78;;;1.85;;
55031;SDS011;40928;51.076;7.950;2023-10-31T05:51:51;4.63;;;2.03;;
55031;SDS011;40928;51.076;7.950;2023-10-31T05:54:17;3.05;;;2.13;;
55031;SDS011;40928;51.076;7.950;2023-10-31T05:56:43;3.65;;;2.13;;
55031;SDS011;40928;51.076;7.950;2023-10-31T05:59:13;5.65;;;1.65;;
55031;SDS011;40928;51.076;7.950;2023-10-31T06:01:38;4.15;;;2.45;;
55031;SDS011;40928;51.076;7.950;2023-10-31T06:04:04;3.08;;;2.10;;
55031;SDS011;40928;51.076;7.950;2023-10-31T06:06:32;2.78;;;2.28;;
55031;SDS011;40928;51.076;7.950;2023-10-31T06:08:58;5.10;;;2.13;;
55031;SDS011;40928;51.076;7.950;2023-10-31T06:11:25;6.40;;;3.03;;
55031;SDS011;40928;51.076;7.950;2023-10-31T06:14:17;3.70;;;2.80;;
55031;SDS011;40928;51.076;7.950;2023-10-31T06:16:48;3.80;;;2.53;;
55031;SDS011;40928;51.076;7.950;2023-10-31T06:19:14;4.10;;;2.05;;
55031;SDS011;40928;51.076;7.950;2023-10-31T06:21:40;4.43;;;3.03;;
55031;SDS011;40928;51.076;7.950;2023-10-31T06:24:05;3.78;;;3.00;;
55031;SDS011;40928;51.076;7.950;2023-10-31T06:26:31;4.97;;;2.67;;
55031;SDS011;40928;51.076;7.950;2023-10-31T06:28:58;4.80;;;2.70;;
55031;SDS011;40928;51.076;7.950;2023-10-31T06:31:23;3.42;;;2.65;;
55031;SDS011;40928;51.076;7.950;2023-10-31T06:33:49;2.72;;;2.30;;
55031;SDS011;40928;51.076;7.950;2023-10-31T06:36:14;8.25;;;2.47;;
55031;SDS011;40928;51.076;7.950;2023-10-31T06:38:40;5.97;;;3.13;;
55031;SDS011;40928;51.076;7.950;2023-10-31T06:41:06;5.88;;;3.22;;
55031;SDS011;40928;51.076;7.950;2023-10-31T06:43:31;4.85;;;2.88;;
55031;SDS011;40928;51.076;7.950;2023-10-31T06:45:57;5.32;;;2.38;;
55031;SDS011;40928;51.076;7.950;2023-10-31T06:48:25;4.70;;;3.15;;
55031;SDS011;40928;51.076;7.950;2023-10-31T06:50:51;4.82;;;3.20;;
55031;SDS011;40928;51.076;7.950;2023-10-31T06:53:17;3.28;;;2.58;;
55031;SDS011;40928;51.076;7.950;2023-10-31T06:55:42;5.03;;;2.95;;
55031;SDS011;40928;51.076;7.950;2023-10-31T06:58:08;4.05;;;2.88;;
55031;SDS011;40928;51.076;7.950;2023-10-31T07:00:34;5.45;;;3.28;;
55031;SDS011;40928;51.076;7.950;2023-10-31T07:02:59;5.93;;;2.85;;
55031;SDS011;40928;51.076;7.950;2023-10-31T07:05:30;4.95;;;2.90;;
55031;SDS011;40928;51.076;7.950;2023-10-31T07:07:56;5.75;;;3.50;;
55031;SDS011;40928;51.076;7.950;2023-10-31T07:10:22;3.83;;;3.38;;
55031;SDS011;40928;51.076;7.950;2023-10-31T07:12:47;5.53;;;3.60;;
55031;SDS011;40928;51.076;7.950;2023-10-31T07:15:13;5.65;;;3.83;;
55031;SDS011;40928;51.076;7.950;2023-10-31T07:17:38;5.20;;;3.72;;
55031;SDS011;40928;51.076;7.950;2023-10-31T07:20:05;5.28;;;4.00;;
55031;SDS011;40928;51.076;7.950;2023-10-31T07:22:31;6.78;;;3.45;;
55031;SDS011;40928;51.076;7.950;2023-10-31T07:24:59;6.28;;;3.35;;
55031;SDS011;40928;51.076;7.950;2023-10-31T07:27:28;3.92;;;3.08;;
55031;SDS011;40928;51.076;7.950;2023-10-31T07:29:54;3.28;;;2.75;;
55031;SDS011;40928;51.076;7.950;2023-10-31T07:32:20;4.75;;;3.22;;
55031;SDS011;40928;51.076;7.950;2023-10-31T07:34:45;6.50;;;3.50;;
55031;SDS011;40928;51.076;7.950;2023-10-31T07:37:11;2.47;;;2.20;;
55031;SDS011;40928;51.076;7.950;2023-10-31T07:39:36;1.48;;;1.38;;
55031;SDS011;40928;51.076;7.950;2023-10-31T07:42:02;1.42;;;1.13;;
55031;SDS011;40928;51.076;7.950;2023-10-31T07:44:28;2.22;;;1.40;;
55031;SDS011;40928;51.076;7.950;2023-10-31T07:46:55;1.88;;;1.50;;
55031;SDS011;40928;51.076;7.950;2023-10-31T07:49:21;1.95;;;1.58;;
55031;SDS011;40928;51.076;7.950;2023-10-31T07:51:47;1.80;;;1.35;;
55031;SDS011;40928;51.076;7.950;2023-10-31T07:54:13;4.70;;;1.50;;
55031;SDS011;40928;51.076;7.950;2023-10-31T07:56:39;5.07;;;1.45;;
55031;SDS011;40928;51.076;7.950;2023-10-31T07:59:07;2.33;;;1.40;;
55031;SDS011;40928;51.076;7.950;2023-10-31T08:01:34;2.20;;;1.73;;
55031;SDS011;40928;51.076;7.950;2023-10-31T08:04:00;3.95;;;2.03;;
55031;SDS011;40928;51.076;7.950;2023-10-31T08:06:26;3.25;;;1.70;;
55031;SDS011;40928;51.076;7.950;2023-10-31T08:08:52;3.80;;;1.88;;
55031;SDS011;40928;51.076;7.950;2023-10-31T08:11:18;3.15;;;2.13;;
55031;SDS011;40928;51.076;7.950;2023-10-31T08:13:43;1.92;;;1.60;;
55031;SDS011;40928;51.076;7.950;2023-10-31T08:16:09;2.95;;;2.00;;
55031;SDS011;40928;51.076;7.950;2023-10-31T08:18:35;3.05;;;2.40;;
55031;SDS011;40928;51.076;7.950;2023-10-31T08:21:01;2.25;;;1.92;;
55031;SDS011;40928;51.076;7.950;2023-10-31T08:23:28;2.40;;;1.90;;
55031;SDS011;40928;51.076;7.950;2023-10-31T08:25:55;3.80;;;1.88;;
55031;SDS011;40928;51.076;7.950;2023-10-31T08:28:20;2.60;;;1.90;;
55031;SDS011;40928;51.076;7.950;2023-10-31T08:30:46;3.17;;;2.33;;
55031;SDS011;40928;51.076;7.950;2023-10-31T08:33:12;3.35;;;2.40;;
55031;SDS011;40928;51.076;7.950;2023-10-31T08:35:38;2.85;;;2.10;;
55031;SDS011;40928;51.076;7.950;2023-10-31T08:38:03;4.00;;;2.50;;
55031;SDS011;40928;51.076;7.950;2023-10-31T08:40:29;4.35;;;2.60;;
55031;SDS011;40928;51.076;7.950;2023-10-31T08:42:54;2.65;;;2.25;;
55031;SDS011;40928;51.076;7.950;2023-10-31T08:45:20;2.90;;;2.40;;
55031;SDS011;40928;51.076;7.950;2023-10-31T08:47:47;7.80;;;2.50;;
55031;SDS011;40928;51.076;7.950;2023-10-31T08:50:12;3.35;;;2.13;;
55031;SDS011;40928;51.076;7.950;2023-10-31T08:52:39;2.47;;;2.03;;
55031;SDS011;40928;51.076;7.950;2023-10-31T08:55:05;2.30;;;1.80;;
55031;SDS011;40928;51.076;7.950;2023-10-31T08:57:32;5.32;;;1.80;;
55031;SDS011;40928;51.076;7.950;2023-10-31T08:59:59;2.05;;;1.67;;
55031;SDS011;40928;51.076;7.950;2023-10-31T09:02:25;2.40;;;2.08;;
55031;SDS011;40928;51.076;7.950;2023-10-31T09:04:52;4.13;;;2.38;;
55031;SDS011;40928;51.076;7.950;2023-10-31T09:07:17;2.90;;;2.20;;
55031;SDS011;40928;51.076;7.950;2023-10-31T09:09:43;2.10;;;1.90;;
55031;SDS011;40928;51.076;7.950;2023-10-31T09:12:08;4.28;;;2.10;;
55031;SDS011;40928;51.076;7.950;2023-10-31T09:14:34;2.40;;;1.77;;
55031;SDS011;40928;51.076;7.950;2023-10-31T09:17:00;3.13;;;2.60;;
55031;SDS011;40928;51.076;7.950;2023-10-31T09:19:26;4.13;;;3.10;;
55031;SDS011;40928;51.076;7.950;2023-10-31T09:21:54;3.15;;;2.35;;
55031;SDS011;40928;51.076;7.950;2023-10-31T09:24:20;3.92;;;2.97;;
55031;SDS011;40928;51.076;7.950;2023-10-31T09:26:46;2.83;;;2.22;;
55031;SDS011;40928;51.076;7.950;2023-10-31T09:29:11;4.97;;;2.60;;
55031;SDS011;40928;51.076;7.950;2023-10-31T09:31:37;3.72;;;2.65;;
55031;SDS011;40928;51.076;7.950;2023-10-31T09:34:02;4.32;;;3.33;;
55031;SDS011;40928;51.076;7.950;2023-10-31T09:36:31;5.28;;;3.17;;
55031;SDS011;40928;51.076;7.950;2023-10-31T09:38:57;4.95;;;3.58;;
55031;SDS011;40928;51.076;7.950;2023-10-31T09:41:23;5.22;;;4.28;;
55031;SDS011;40928;51.076;7.950;2023-10-31T09:43:49;10.77;;;4.30;;
55031;SDS011;40928;51.076;7.950;2023-10-31T09:46:15;7.53;;;4.50;;
55031;SDS011;40928;51.076;7.950;2023-10-31T09:48:42;8.35;;;5.40;;
55031;SDS011;40928;51.076;7.950;2023-10-31T09:51:09;7.38;;;5.28;;
55031;SDS011;40928;51.076;7.950;2023-10-31T09:53:37;8.07;;;5.65;;
55031;SDS011;40928;51.076;7.950;2023-10-31T09:56:06;7.85;;;5.88;;
55031;SDS011;40928;51.076;7.950;2023-10-31T09:58:33;9.05;;;5.72;;
55031;SDS011;40928;51.076;7.950;2023-10-31T10:00:59;15.13;;;5.07;;
55031;SDS011;40928;51.076;7.950;2023-10-31T10:03:25;10.55;;;5.20;;
55031;SDS011;40928;51.076;7.950;2023-10-31T10:05:52;9.73;;;5.45;;
55031;SDS011;40928;51.076;7.950;2023-10-31T10:08:19;7.38;;;4.65;;
55031;SDS011;40928;51.076;7.950;2023-10-31T10:10:45;7.18;;;5.65;;
55031;SDS011;40928;51.076;7.950;2023-10-31T10:13:11;8.27;;;4.95;;
55031;SDS011;40928;51.076;7.950;2023-10-31T10:15:50;7.15;;;4.75;;
55031;SDS011;40928;51.076;7.950;2023-10-31T10:18:29;10.02;;;4.50;;
55031;SDS011;40928;51.076;7.950;2023-10-31T10:23:23;8.15;;;5.30;;
55031;SDS011;40928;51.076;7.950;2023-10-31T10:25:50;7.05;;;4.85;;
55031;SDS011;40928;51.076;7.950;2023-10-31T10:28:15;8.50;;;4.50;;
55031;SDS011;40928;51.076;7.950;2023-10-31T10:30:42;8.40;;;5.00;;
55031;SDS011;40928;51.076;7.950;2023-10-31T10:33:07;9.10;;;4.95;;
55031;SDS011;40928;51.076;7.950;2023-10-31T10:35:33;8.75;;;4.97;;
55031;SDS011;40928;51.076;7.950;2023-10-31T10:37:59;5.18;;;4.28;;
55031;SDS011;40928;51.076;7.950;2023-10-31T10:40:27;5.22;;;4.60;;
55031;SDS011;40928;51.076;7.950;2023-10-31T10:42:52;5.90;;;4.63;;
55031;SDS011;40928;51.076;7.950;2023-10-31T10:45:24;10.77;;;4.70;;
55031;SDS011;40928;51.076;7.950;2023-10-31T10:47:50;5.28;;;3.92;;
55031;SDS011;40928;51.076;7.950;2023-10-31T10:50:20;5.07;;;3.53;;
55031;SDS011;40928;51.076;7.950;2023-10-31T10:53:03;5.78;;;3.30;;
55031;SDS011;40928;51.076;7.950;2023-10-31T10:55:46;8.95;;;3.53;;
55031;SDS011;40928;51.076;7.950;2023-10-31T11:00:56;4.60;;;2.70;;
55031;SDS011;40928;51.076;7.950;2023-10-31T11:03:24;5.65;;;2.83;;
55031;SDS011;40928;51.076;7.950;2023-10-31T11:05:53;7.55;;;2.80;;
55031;SDS011;40928;51.076;7.950;2023-10-31T11:08:20;4.97;;;2.78;;
55031;SDS011;40928;51.076;7.950;2023-10-31T11:10:46;2.90;;;2.10;;
55031;SDS011;40928;51.076;7.950;2023-10-31T11:13:14;6.43;;;2.80;;
55031;SDS011;40928;51.076;7.950;2023-10-31T11:15:41;5.03;;;2.20;;
55031;SDS011;40928;51.076;7.950;2023-10-31T11:18:09;2.78;;;2.00;;
55031;SDS011;40928;51.076;7.950;2023-10-31T11:20:35;3.33;;;2.45;;
55031;SDS011;40928;51.076;7.950;2023-10-31T11:23:02;4.97;;;2.00;;
55031;SDS011;40928;51.076;7.950;2023-10-31T11:25:32;4.28;;;2.65;;
55031;SDS011;40928;51.076;7.950;2023-10-31T11:28:19;2.47;;;2.20;;
55031;SDS011;40928;51.076;7.950;2023-10-31T11:30:48;5.45;;;1.92;;
55031;SDS011;40928;51.076;7.950;2023-10-31T11:33:15;2.70;;;2.05;;
55031;SDS011;40928;51.076;7.950;2023-10-31T11:35:49;3.08;;;1.70;;
55031;SDS011;40928;51.076;7.950;2023-10-31T11:38:32;4.80;;;1.65;;
55031;SDS011;40928;51.076;7.950;2023-10-31T11:41:03;4.82;;;1.73;;
55031;SDS011;40928;51.076;7.950;2023-10-31T11:46:04;3.28;;;1.65;;
55031;SDS011;40928;51.076;7.950;2023-10-31T11:48:49;2.63;;;1.52;;
55031;SDS011;40928;51.076;7.950;2023-10-31T11:51:16;5.07;;;2.17;;
55031;SDS011;40928;51.076;7.950;2023-10-31T11:53:43;3.95;;;1.60;;
55031;SDS011;40928;51.076;7.950;2023-10-31T11:56:17;3.60;;;1.83;;
55031;SDS011;40928;51.076;7.950;2023-10-31T11:58:44;2.67;;;1.10;;
55031;SDS011;40928;51.076;7.950;2023-10-31T12:01:10;2.45;;;1.27;;
55031;SDS011;40928;51.076;7.950;2023-10-31T12:03:40;4.50;;;1.90;;
55031;SDS011;40928;51.076;7.950;2023-10-31T12:06:07;3.35;;;1.85;;
55031;SDS011;40928;51.076;7.950;2023-10-31T12:08:35;2.35;;;1.92;;
55031;SDS011;40928;51.076;7.950;2023-10-31T12:11:23;1.70;;;1.20;;
55031;SDS011;40928;51.076;7.950;2023-10-31T12:13:55;5.55;;;1.30;;
55031;SDS011;40928;51.076;7.950;2023-10-31T12:16:26;7.10;;;1.43;;
55031;SDS011;40928;51.076;7.950;2023-10-31T12:18:57;2.13;;;1.20;;
55031;SDS011;40928;51.076;7.950;2023-10-31T12:24:12;5.15;;;2.22;;
55031;SDS011;40928;51.076;7.950;2023-10-31T12:26:38;3.35;;;1.42;;
55031;SDS011;40928;51.076;7.950;2023-10-31T12:29:12;5.10;;;2.92;;
55031;SDS011;40928;51.076;7.950;2023-10-31T12:34:17;4.03;;;1.90;;
55031;SDS011;40928;51.076;7.950;2023-10-31T12:36:53;3.28;;;1.35;;
55031;SDS011;40928;51.076;7.950;2023-10-31T12:39:26;1.95;;;1.13;;
55031;SDS011;40928;51.076;7.950;2023-10-31T12:41:54;3.65;;;1.77;;
55031;SDS011;40928;51.076;7.950;2023-10-31T12:44:25;2.97;;;2.00;;
55031;SDS011;40928;51.076;7.950;2023-10-31T12:46:52;1.48;;;0.77;;
55031;SDS011;40928;51.076;7.950;2023-10-31T12:49:19;2.67;;;1.10;;
55031;SDS011;40928;51.076;7.950;2023-10-31T12:51:55;2.60;;;1.08;;
55031;SDS011;40928;51.076;7.950;2023-10-31T12:57:07;3.45;;;0.90;;
55031;SDS011;40928;51.076;7.950;2023-10-31T12:59:35;2.35;;;0.68;;
55031;SDS011;40928;51.076;7.950;2023-10-31T13:02:03;2.92;;;0.80;;
55031;SDS011;40928;51.076;7.950;2023-10-31T13:04:32;4.32;;;0.82;;
55031;SDS011;40928;51.076;7.950;2023-10-31T13:06:59;3.30;;;1.08;;
55031;SDS011;40928;51.076;7.950;2023-10-31T13:09:31;2.40;;;0.57;;
55031;SDS011;40928;51.076;7.950;2023-10-31T13:11:58;1.42;;;1.02;;
55031;SDS011;40928;51.076;7.950;2023-10-31T13:14:28;0.60;;;0.30;;
55031;SDS011;40928;51.076;7.950;2023-10-31T13:16:54;2.03;;;0.50;;
55031;SDS011;40928;51.076;7.950;2023-10-31T13:19:19;3.65;;;0.60;;
55031;SDS011;40928;51.076;7.950;2023-10-31T13:21:47;2.42;;;0.70;;
55031;SDS011;40928;51.076;7.950;2023-10-31T13:24:13;0.82;;;0.30;;
55031;SDS011;40928;51.076;7.950;2023-10-31T13:26:39;1.52;;;0.50;;
55031;SDS011;40928;51.076;7.950;2023-10-31T13:29:04;2.95;;;0.98;;
55031;SDS011;40928;51.076;7.950;2023-10-31T13:31:30;2.85;;;0.40;;
55031;SDS011;40928;51.076;7.950;2023-10-31T13:33:56;1.77;;;0.40;;
55031;SDS011;40928;51.076;7.950;2023-10-31T13:36:21;4.93;;;0.43;;
55031;SDS011;40928;51.076;7.950;2023-10-31T13:38:47;0.93;;;0.43;;
55031;SDS011;40928;51.076;7.950;2023-10-31T13:41:14;4.10;;;0.40;;
55031;SDS011;40928;51.076;7.950;2023-10-31T13:43:42;1.92;;;0.40;;
55031;SDS011;40928;51.076;7.950;2023-10-31T13:46:07;2.42;;;0.57;;
55031;SDS011;40928;51.076;7.950;2023-10-31T13:48:34;2.75;;;0.45;;
55031;SDS011;40928;51.076;7.950;2023-10-31T13:50:59;3.38;;;0.50;;
55031;SDS011;40928;51.076;7.950;2023-10-31T13:53:25;1.92;;;0.50;;
55031;SDS011;40928;51.076;7.950;2023-10-31T13:55:50;2.38;;;0.43;;
55031;SDS011;40928;51.076;7.950;2023-10-31T13:58:16;1.67;;;0.50;;
55031;SDS011;40928;51.076;7.950;2023-10-31T14:00:42;1.95;;;0.60;;
55031;SDS011;40928;51.076;7.950;2023-10-31T14:03:10;2.22;;;0.50;;
55031;SDS011;40928;51.076;7.950;2023-10-31T14:05:36;7.60;;;0.70;;
55031;SDS011;40928;51.076;7.950;2023-10-31T14:08:02;1.23;;;0.57;;
55031;SDS011;40928;51.076;7.950;2023-10-31T14:10:28;3.15;;;0.82;;
55031;SDS011;40928;51.076;7.950;2023-10-31T14:12:56;2.53;;;0.65;;
55031;SDS011;40928;51.076;7.950;2023-10-31T14:15:22;2.03;;;0.50;;
55031;SDS011;40928;51.076;7.950;2023-10-31T14:17:48;5.18;;;0.95;;
55031;SDS011;40928;51.076;7.950;2023-10-31T14:20:16;3.22;;;0.60;;
55031;SDS011;40928;51.076;7.950;2023-10-31T14:22:46;3.40;;;0.50;;
55031;SDS011;40928;51.076;7.950;2023-10-31T14:25:15;2.95;;;0.60;;
55031;SDS011;40928;51.076;7.950;2023-10-31T14:27:42;0.90;;;0.57;;
55031;SDS011;40928;51.076;7.950;2023-10-31T14:30:09;2.15;;;0.45;;
55031;SDS011;40928;51.076;7.950;2023-10-31T14:32:36;3.50;;;0.50;;
55031;SDS011;40928;51.076;7.950;2023-10-31T14:35:02;4.10;;;0.75;;
55031;SDS011;40928;51.076;7.950;2023-10-31T14:37:28;1.40;;;0.60;;
55031;SDS011;40928;51.076;7.950;2023-10-31T14:39:54;4.25;;;0.60;;
55031;SDS011;40928;51.076;7.950;2023-10-31T14:42:20;1.92;;;1.00;;
55031;SDS011;40928;51.076;7.950;2023-10-31T14:44:46;2.55;;;0.60;;
55031;SDS011;40928;51.076;7.950;2023-10-31T14:47:12;3.63;;;0.70;;
55031;SDS011;40928;51.076;7.950;2023-10-31T14:49:37;1.67;;;0.63;;
55031;SDS011;40928;51.076;7.950;2023-10-31T14:52:03;3.42;;;0.88;;
55031;SDS011;40928;51.076;7.950;2023-10-31T14:54:30;3.67;;;0.80;;
55031;SDS011;40928;51.076;7.950;2023-10-31T14:56:56;6.75;;;1.10;;
55031;SDS011;40928;51.076;7.950;2023-10-31T14:59:22;1.83;;;0.50;;
55031;SDS011;40928;51.076;7.950;2023-10-31T15:01:48;2.08;;;0.47;;
55031;SDS011;40928;51.076;7.950;2023-10-31T15:04:14;3.03;;;0.65;;
55031;SDS011;40928;51.076;7.950;2023-10-31T15:06:39;5.50;;;0.80;;
55031;SDS011;40928;51.076;7.950;2023-10-31T15:09:05;2.28;;;0.50;;